sensor_id;sensor_type;location;lat;lon;timestamp;temperature;humidity
14884;DHT22;7534;50.762;7.000;2023-06-14T00:01:50;18.10;99.90
14884;DHT22;7534;50.762;7.000;2023-06-14T00:04:16;18.10;99.90
14884;DHT22;7534;50.762;7.000;2023-06-14T00:06:43;18.00;99.90
14884;DHT22;7534;50.762;7.000;2023-06-14T00:09:12;18.00;99.90
14884;DHT22;7534;50.762;7.000;2023-06-14T00:11:39;18.00;99.90
14884;DHT22;7534;50.762;7.000;2023-06-14T00:14:06;17.90;99.90
14884;DHT22;7534;50.762;7.000;2023-06-14T00:16:31;17.90;99.90
14884;DHT22;7534;50.762;7.000;2023-06-14T00:18:59;17.80;99.90
14884;DHT22;7534;50.762;7.000;2023-06-14T00:21:25;17.80;99.90
14884;DHT22;7534;50.762;7.000;2023-06-14T00:23:53;17.80;99.90
14884;DHT22;7534;50.762;7.000;2023-06-14T00:26:19;17.70;99.90
14884;DHT22;7534;50.762;7.000;2023-06-14T00:28:45;17.60;99.90
14884;DHT22;7534;50.762;7.000;2023-06-14T00:31:10;17.70;99.90
14884;DHT22;7534;50.762;7.000;2023-06-14T00:33:37;17.60;99.90
14884;DHT22;7534;50.762;7.000;2023-06-14T00:36:03;17.60;99.90
14884;DHT22;7534;50.762;7.000;2023-06-14T00:38:28;17.50;99.90
14884;DHT22;7534;50.762;7.000;2023-06-14T00:40:54;17.50;99.90
14884;DHT22;7534;50.762;7.000;2023-06-14T00:43:20;17.50;99.90
14884;DHT22;7534;50.762;7.000;2023-06-14T00:45:45;17.40;99.90
14884;DHT22;7534;50.762;7.000;2023-06-14T00:48:13;17.30;99.90
14884;DHT22;7534;50.762;7.000;2023-06-14T00:50:40;17.30;99.90
14884;DHT22;7534;50.762;7.000;2023-06-14T00:53:07;17.30;99.90
14884;DHT22;7534;50.762;7.000;2023-06-14T00:55:32;17.30;99.90
14884;DHT22;7534;50.762;7.000;2023-06-14T00:57:58;17.20;99.90
14884;DHT22;7534;50.762;7.000;2023-06-14T01:00:24;17.20;99.90
14884;DHT22;7534;50.762;7.000;2023-06-14T01:02:50;17.10;99.90
14884;DHT22;7534;50.762;7.000;2023-06-14T01:05:16;17.10;99.90
14884;DHT22;7534;50.762;7.000;2023-06-14T01:13:26;17.00;99.90
14884;DHT22;7534;50.762;7.000;2023-06-14T01:15:57;16.90;99.90
14884;DHT22;7534;50.762;7.000;2023-06-14T01:18:24;16.90;99.90
14884;DHT22;7534;50.762;7.000;2023-06-14T01:20:51;16.90;99.90
14884;DHT22;7534;50.762;7.000;2023-06-14T01:28:20;16.70;99.90
14884;DHT22;7534;50.762;7.000;2023-06-14T01:30:49;16.80;99.90
14884;DHT22;7534;50.762;7.000;2023-06-14T01:33:22;16.70;99.90
14884;DHT22;7534;50.762;7.000;2023-06-14T01:35:52;16.60;99.90
14884;DHT22;7534;50.762;7.000;2023-06-14T01:38:29;16.60;99.90
14884;DHT22;7534;50.762;7.000;2023-06-14T01:40:57;16.50;99.90
14884;DHT22;7534;50.762;7.000;2023-06-14T01:43:25;16.50;99.90
14884;DHT22;7534;50.762;7.000;2023-06-14T01:45:53;16.40;99.90
14884;DHT22;7534;50.762;7.000;2023-06-14T01:48:21;16.40;99.90
14884;DHT22;7534;50.762;7.000;2023-06-14T01:50:48;16.30;99.90
14884;DHT22;7534;50.762;7.000;2023-06-14T01:53:15;16.30;99.90
14884;DHT22;7534;50.762;7.000;2023-06-14T01:55:41;16.30;99.90
14884;DHT22;7534;50.762;7.000;2023-06-14T01:58:08;16.20;99.90
14884;DHT22;7534;50.762;7.000;2023-06-14T02:00:35;16.20;99.90
14884;DHT22;7534;50.762;7.000;2023-06-14T02:03:01;16.20;99.90
14884;DHT22;7534;50.762;7.000;2023-06-14T02:05:29;16.20;99.90
14884;DHT22;7534;50.762;7.000;2023-06-14T02:07:55;16.20;99.90
14884;DHT22;7534;50.762;7.000;2023-06-14T02:10:21;16.10;99.90
14884;DHT22;7534;50.762;7.000;2023-06-14T02:12:47;16.10;99.90
14884;DHT22;7534;50.762;7.000;2023-06-14T02:15:13;16.10;99.90
14884;DHT22;7534;50.762;7.000;2023-06-14T02:17:48;16.10;99.90
14884;DHT22;7534;50.762;7.000;2023-06-14T02:20:15;16.10;99.90
14884;DHT22;7534;50.762;7.000;2023-06-14T02:22:40;16.10;99.90
14884;DHT22;7534;50.762;7.000;2023-06-14T02:25:07;16.00;99.90
14884;DHT22;7534;50.762;7.000;2023-06-14T02:27:34;15.90;99.90
14884;DHT22;7534;50.762;7.000;2023-06-14T02:30:01;15.90;99.90
14884;DHT22;7534;50.762;7.000;2023-06-14T02:32:27;15.90;99.90
14884;DHT22;7534;50.762;7.000;2023-06-14T02:34:53;15.90;99.90
14884;DHT22;7534;50.762;7.000;2023-06-14T02:37:19;15.80;99.90
14884;DHT22;7534;50.762;7.000;2023-06-14T02:39:45;15.80;99.90
14884;DHT22;7534;50.762;7.000;2023-06-14T02:42:11;15.70;99.90
14884;DHT22;7534;50.762;7.000;2023-06-14T02:44:37;15.80;99.90
14884;DHT22;7534;50.762;7.000;2023-06-14T02:47:04;15.70;99.90
14884;DHT22;7534;50.762;7.000;2023-06-14T02:49:30;15.70;99.90
14884;DHT22;7534;50.762;7.000;2023-06-14T02:51:56;15.70;99.90
14884;DHT22;7534;50.762;7.000;2023-06-14T02:54:22;15.60;99.90
14884;DHT22;7534;50.762;7.000;2023-06-14T02:56:48;15.60;99.90
14884;DHT22;7534;50.762;7.000;2023-06-14T02:59:14;15.60;99.90
14884;DHT22;7534;50.762;7.000;2023-06-14T03:01:41;15.50;99.90
14884;DHT22;7534;50.762;7.000;2023-06-14T03:04:07;15.60;99.90
14884;DHT22;7534;50.762;7.000;2023-06-14T03:06:34;15.50;99.90
14884;DHT22;7534;50.762;7.000;2023-06-14T03:09:00;15.50;99.90
14884;DHT22;7534;50.762;7.000;2023-06-14T03:11:29;15.50;99.90
14884;DHT22;7534;50.762;7.000;2023-06-14T03:13:58;15.40;99.90
14884;DHT22;7534;50.762;7.000;2023-06-14T03:16:24;15.40;99.90
14884;DHT22;7534;50.762;7.000;2023-06-14T03:18:53;15.40;99.90
14884;DHT22;7534;50.762;7.000;2023-06-14T03:21:19;15.40;99.90
14884;DHT22;7534;50.762;7.000;2023-06-14T03:23:46;15.30;99.90
14884;DHT22;7534;50.762;7.000;2023-06-14T03:26:13;15.30;99.90
14884;DHT22;7534;50.762;7.000;2023-06-14T03:28:39;15.40;99.90
14884;DHT22;7534;50.762;7.000;2023-06-14T03:31:15;15.40;99.90
14884;DHT22;7534;50.762;7.000;2023-06-14T03:33:41;15.30;99.90
14884;DHT22;7534;50.762;7.000;2023-06-14T03:36:07;15.30;99.90
14884;DHT22;7534;50.762;7.000;2023-06-14T03:38:33;15.30;99.90
14884;DHT22;7534;50.762;7.000;2023-06-14T03:40:58;15.30;99.90
14884;DHT22;7534;50.762;7.000;2023-06-14T03:43:24;15.40;99.90
14884;DHT22;7534;50.762;7.000;2023-06-14T03:45:50;15.30;99.90
14884;DHT22;7534;50.762;7.000;2023-06-14T03:48:17;15.40;99.90
14884;DHT22;7534;50.762;7.000;2023-06-14T03:50:43;15.50;99.90
14884;DHT22;7534;50.762;7.000;2023-06-14T03:53:09;15.50;99.90
14884;DHT22;7534;50.762;7.000;2023-06-14T03:55:35;15.60;99.90
14884;DHT22;7534;50.762;7.000;2023-06-14T03:58:03;15.70;99.90
14884;DHT22;7534;50.762;7.000;2023-06-14T04:00:28;15.70;99.90
14884;DHT22;7534;50.762;7.000;2023-06-14T04:02:54;15.80;99.90
14884;DHT22;7534;50.762;7.000;2023-06-14T04:05:20;15.90;99.90
14884;DHT22;7534;50.762;7.000;2023-06-14T04:07:46;16.00;99.90
14884;DHT22;7534;50.762;7.000;2023-06-14T04:10:14;16.30;99.90
14884;DHT22;7534;50.762;7.000;2023-06-14T04:12:41;16.30;99.90
14884;DHT22;7534;50.762;7.000;2023-06-14T04:15:08;16.40;99.90
14884;DHT22;7534;50.762;7.000;2023-06-14T04:17:34;16.70;99.90
14884;DHT22;7534;50.762;7.000;2023-06-14T04:20:01;16.90;99.90
14884;DHT22;7534;50.762;7.000;2023-06-14T04:22:30;17.00;99.90
14884;DHT22;7534;50.762;7.000;2023-06-14T04:24:57;17.20;99.90
14884;DHT22;7534;50.762;7.000;2023-06-14T04:27:23;17.20;99.90
14884;DHT22;7534;50.762;7.000;2023-06-14T04:29:54;17.30;99.90
14884;DHT22;7534;50.762;7.000;2023-06-14T04:32:28;17.40;99.90
14884;DHT22;7534;50.762;7.000;2023-06-14T04:35:06;17.60;99.90
14884;DHT22;7534;50.762;7.000;2023-06-14T04:37:33;17.80;99.90
14884;DHT22;7534;50.762;7.000;2023-06-14T04:40:00;18.00;99.90
14884;DHT22;7534;50.762;7.000;2023-06-14T04:42:25;18.20;99.90
14884;DHT22;7534;50.762;7.000;2023-06-14T04:44:56;20.10;99.90
14884;DHT22;7534;50.762;7.000;2023-06-14T04:47:22;20.20;97.10
14884;DHT22;7534;50.762;7.000;2023-06-14T04:49:50;22.20;94.90
14884;DHT22;7534;50.762;7.000;2023-06-14T04:52:19;24.30;93.80
14884;DHT22;7534;50.762;7.000;2023-06-14T04:54:46;25.70;86.40
14884;DHT22;7534;50.762;7.000;2023-06-14T04:57:14;26.90;83.40
14884;DHT22;7534;50.762;7.000;2023-06-14T04:59:43;27.70;75.10
14884;DHT22;7534;50.762;7.000;2023-06-14T05:02:10;28.60;72.80
14884;DHT22;7534;50.762;7.000;2023-06-14T05:04:37;29.10;70.10
14884;DHT22;7534;50.762;7.000;2023-06-14T05:07:06;29.30;68.50
14884;DHT22;7534;50.762;7.000;2023-06-14T05:09:33;28.60;68.50
14884;DHT22;7534;50.762;7.000;2023-06-14T05:11:59;27.60;73.90
14884;DHT22;7534;50.762;7.000;2023-06-14T05:14:26;26.60;79.70
14884;DHT22;7534;50.762;7.000;2023-06-14T05:16:52;25.90;72.30
14884;DHT22;7534;50.762;7.000;2023-06-14T05:19:18;25.10;88.10
14884;DHT22;7534;50.762;7.000;2023-06-14T05:21:46;23.70;75.90
14884;DHT22;7534;50.762;7.000;2023-06-14T05:24:15;23.10;76.70
14884;DHT22;7534;50.762;7.000;2023-06-14T05:26:43;23.60;76.90
14884;DHT22;7534;50.762;7.000;2023-06-14T05:29:11;26.20;74.20
14884;DHT22;7534;50.762;7.000;2023-06-14T05:31:37;26.20;73.90
14884;DHT22;7534;50.762;7.000;2023-06-14T05:34:03;27.30;69.70
14884;DHT22;7534;50.762;7.000;2023-06-14T05:36:30;27.50;69.50
14884;DHT22;7534;50.762;7.000;2023-06-14T05:38:56;26.50;68.40
14884;DHT22;7534;50.762;7.000;2023-06-14T05:43:52;23.70;71.80
14884;DHT22;7534;50.762;7.000;2023-06-14T05:46:21;21.90;79.70
14884;DHT22;7534;50.762;7.000;2023-06-14T05:48:51;21.90;80.30
14884;DHT22;7534;50.762;7.000;2023-06-14T05:51:17;21.50;80.30
14884;DHT22;7534;50.762;7.000;2023-06-14T05:53:49;21.00;80.10
14884;DHT22;7534;50.762;7.000;2023-06-14T05:56:17;20.90;80.30
14884;DHT22;7534;50.762;7.000;2023-06-14T05:58:44;20.80;79.70
14884;DHT22;7534;50.762;7.000;2023-06-14T06:01:10;20.60;80.10
14884;DHT22;7534;50.762;7.000;2023-06-14T06:03:36;20.50;80.80
14884;DHT22;7534;50.762;7.000;2023-06-14T06:06:02;20.40;81.20
14884;DHT22;7534;50.762;7.000;2023-06-14T06:08:29;20.40;81.50
14884;DHT22;7534;50.762;7.000;2023-06-14T06:10:55;20.40;82.20
14884;DHT22;7534;50.762;7.000;2023-06-14T06:13:22;20.30;82.90
14884;DHT22;7534;50.762;7.000;2023-06-14T06:15:48;20.30;83.40
14884;DHT22;7534;50.762;7.000;2023-06-14T06:18:13;20.40;66.80
14884;DHT22;7534;50.762;7.000;2023-06-14T06:20:39;20.40;66.50
14884;DHT22;7534;50.762;7.000;2023-06-14T06:23:05;20.60;65.80
14884;DHT22;7534;50.762;7.000;2023-06-14T06:25:31;20.60;66.60
14884;DHT22;7534;50.762;7.000;2023-06-14T06:27:57;20.40;67.20
14884;DHT22;7534;50.762;7.000;2023-06-14T06:30:23;20.60;65.90
14884;DHT22;7534;50.762;7.000;2023-06-14T06:32:50;20.60;66.30
14884;DHT22;7534;50.762;7.000;2023-06-14T06:35:16;20.70;65.60
14884;DHT22;7534;50.762;7.000;2023-06-14T06:37:42;20.80;65.80
14884;DHT22;7534;50.762;7.000;2023-06-14T06:40:08;20.80;65.10
14884;DHT22;7534;50.762;7.000;2023-06-14T06:42:35;21.00;64.90
14884;DHT22;7534;50.762;7.000;2023-06-14T06:45:01;21.30;63.70
14884;DHT22;7534;50.762;7.000;2023-06-14T06:47:27;21.40;62.30
14884;DHT22;7534;50.762;7.000;2023-06-14T06:49:53;21.50;62.90
14884;DHT22;7534;50.762;7.000;2023-06-14T06:52:19;21.80;62.40
14884;DHT22;7534;50.762;7.000;2023-06-14T06:54:44;22.30;60.70
14884;DHT22;7534;50.762;7.000;2023-06-14T06:57:10;23.00;58.40
14884;DHT22;7534;50.762;7.000;2023-06-14T06:59:36;24.10;65.70
14884;DHT22;7534;50.762;7.000;2023-06-14T07:06:57;30.00;40.00
14884;DHT22;7534;50.762;7.000;2023-06-14T07:09:22;30.80;37.20
14884;DHT22;7534;50.762;7.000;2023-06-14T07:11:50;31.30;35.80
14884;DHT22;7534;50.762;7.000;2023-06-14T07:14:16;31.80;35.00
14884;DHT22;7534;50.762;7.000;2023-06-14T07:16:42;32.30;33.70
14884;DHT22;7534;50.762;7.000;2023-06-14T07:19:08;33.00;32.40
14884;DHT22;7534;50.762;7.000;2023-06-14T07:21:35;33.10;31.40
14884;DHT22;7534;50.762;7.000;2023-06-14T07:24:03;32.50;31.90
14884;DHT22;7534;50.762;7.000;2023-06-14T07:26:31;33.00;31.50
14884;DHT22;7534;50.762;7.000;2023-06-14T07:28:57;33.10;30.60
14884;DHT22;7534;50.762;7.000;2023-06-14T07:31:23;33.30;30.10
14884;DHT22;7534;50.762;7.000;2023-06-14T07:33:49;33.70;29.90
14884;DHT22;7534;50.762;7.000;2023-06-14T07:36:14;34.60;28.90
14884;DHT22;7534;50.762;7.000;2023-06-14T07:38:40;33.90;28.70
14884;DHT22;7534;50.762;7.000;2023-06-14T07:41:06;33.90;28.90
14884;DHT22;7534;50.762;7.000;2023-06-14T07:43:34;35.30;27.30
14884;DHT22;7534;50.762;7.000;2023-06-14T07:46:00;35.30;27.70
14884;DHT22;7534;50.762;7.000;2023-06-14T07:48:26;35.20;27.40
14884;DHT22;7534;50.762;7.000;2023-06-14T07:50:52;34.80;27.20
14884;DHT22;7534;50.762;7.000;2023-06-14T07:53:18;34.50;27.70
14884;DHT22;7534;50.762;7.000;2023-06-14T07:55:44;35.10;27.30
14884;DHT22;7534;50.762;7.000;2023-06-14T07:58:10;34.90;27.20
14884;DHT22;7534;50.762;7.000;2023-06-14T08:00:36;35.30;26.80
14884;DHT22;7534;50.762;7.000;2023-06-14T08:03:02;36.20;26.50
14884;DHT22;7534;50.762;7.000;2023-06-14T08:05:28;36.30;25.90
14884;DHT22;7534;50.762;7.000;2023-06-14T08:07:54;36.40;26.00
14884;DHT22;7534;50.762;7.000;2023-06-14T08:10:21;36.50;25.50
14884;DHT22;7534;50.762;7.000;2023-06-14T08:12:47;35.70;26.10
14884;DHT22;7534;50.762;7.000;2023-06-14T08:15:17;36.10;26.00
14884;DHT22;7534;50.762;7.000;2023-06-14T08:17:45;38.60;23.70
14884;DHT22;7534;50.762;7.000;2023-06-14T08:20:12;38.70;24.00
14884;DHT22;7534;50.762;7.000;2023-06-14T08:22:39;39.60;23.00
14884;DHT22;7534;50.762;7.000;2023-06-14T08:25:08;39.80;23.10
14884;DHT22;7534;50.762;7.000;2023-06-14T08:27:35;41.30;21.50
14884;DHT22;7534;50.762;7.000;2023-06-14T08:30:01;41.50;20.70
14884;DHT22;7534;50.762;7.000;2023-06-14T08:32:28;40.50;20.90
14884;DHT22;7534;50.762;7.000;2023-06-14T08:34:53;39.70;21.50
14884;DHT22;7534;50.762;7.000;2023-06-14T08:37:19;38.70;22.20
14884;DHT22;7534;50.762;7.000;2023-06-14T08:39:46;38.60;22.20
14884;DHT22;7534;50.762;7.000;2023-06-14T08:42:12;38.90;22.10
14884;DHT22;7534;50.762;7.000;2023-06-14T08:44:39;38.10;21.90
14884;DHT22;7534;50.762;7.000;2023-06-14T08:47:07;37.80;22.40
14884;DHT22;7534;50.762;7.000;2023-06-14T08:49:36;37.00;22.60
14884;DHT22;7534;50.762;7.000;2023-06-14T08:52:05;36.60;23.10
14884;DHT22;7534;50.762;7.000;2023-06-14T08:54:36;37.00;23.00
14884;DHT22;7534;50.762;7.000;2023-06-14T08:57:12;37.70;22.70
14884;DHT22;7534;50.762;7.000;2023-06-14T08:59:46;38.00;22.00
14884;DHT22;7534;50.762;7.000;2023-06-14T09:02:15;37.70;22.40
14884;DHT22;7534;50.762;7.000;2023-06-14T09:04:43;38.30;21.80
14884;DHT22;7534;50.762;7.000;2023-06-14T09:07:10;37.70;21.20
14884;DHT22;7534;50.762;7.000;2023-06-14T09:09:41;37.80;21.10
14884;DHT22;7534;50.762;7.000;2023-06-14T09:12:11;37.80;20.70
14884;DHT22;7534;50.762;7.000;2023-06-14T09:14:37;36.60;21.00
14884;DHT22;7534;50.762;7.000;2023-06-14T09:17:06;35.90;21.60
14884;DHT22;7534;50.762;7.000;2023-06-14T09:19:34;36.40;21.20
14884;DHT22;7534;50.762;7.000;2023-06-14T09:22:02;36.00;21.20
14884;DHT22;7534;50.762;7.000;2023-06-14T09:24:29;37.00;21.20
14884;DHT22;7534;50.762;7.000;2023-06-14T09:26:55;37.90;20.60
14884;DHT22;7534;50.762;7.000;2023-06-14T09:29:20;37.70;20.00
14884;DHT22;7534;50.762;7.000;2023-06-14T09:31:47;37.00;20.60
14884;DHT22;7534;50.762;7.000;2023-06-14T09:34:13;37.40;20.30
14884;DHT22;7534;50.762;7.000;2023-06-14T09:36:39;37.20;20.90
14884;DHT22;7534;50.762;7.000;2023-06-14T09:39:06;36.50;21.30
14884;DHT22;7534;50.762;7.000;2023-06-14T09:41:41;36.00;21.20
14884;DHT22;7534;50.762;7.000;2023-06-14T09:44:09;35.20;21.90
14884;DHT22;7534;50.762;7.000;2023-06-14T09:46:37;35.00;22.10
14884;DHT22;7534;50.762;7.000;2023-06-14T09:49:04;35.70;21.40
14884;DHT22;7534;50.762;7.000;2023-06-14T09:51:31;35.40;22.10
14884;DHT22;7534;50.762;7.000;2023-06-14T09:54:01;36.60;21.90
14884;DHT22;7534;50.762;7.000;2023-06-14T09:56:35;37.10;20.90
14884;DHT22;7534;50.762;7.000;2023-06-14T09:59:05;36.00;21.40
14884;DHT22;7534;50.762;7.000;2023-06-14T10:01:34;35.00;21.90
14884;DHT22;7534;50.762;7.000;2023-06-14T10:04:03;35.80;22.30
14884;DHT22;7534;50.762;7.000;2023-06-14T10:06:31;35.30;22.50
14884;DHT22;7534;50.762;7.000;2023-06-14T10:08:59;36.70;21.70
14884;DHT22;7534;50.762;7.000;2023-06-14T10:11:26;36.80;21.20
14884;DHT22;7534;50.762;7.000;2023-06-14T10:13:57;36.00;21.80
14884;DHT22;7534;50.762;7.000;2023-06-14T10:19:40;34.70;23.00
14884;DHT22;7534;50.762;7.000;2023-06-14T10:22:14;34.80;22.90
14884;DHT22;7534;50.762;7.000;2023-06-14T10:24:45;35.10;22.80
14884;DHT22;7534;50.762;7.000;2023-06-14T10:27:15;35.60;22.40
14884;DHT22;7534;50.762;7.000;2023-06-14T10:32:18;35.30;22.70
14884;DHT22;7534;50.762;7.000;2023-06-14T10:34:44;34.00;24.40
14884;DHT22;7534;50.762;7.000;2023-06-14T10:37:14;33.50;24.20
14884;DHT22;7534;50.762;7.000;2023-06-14T10:39:44;33.00;24.40
14884;DHT22;7534;50.762;7.000;2023-06-14T10:42:11;32.90;24.90
14884;DHT22;7534;50.762;7.000;2023-06-14T10:44:38;33.10;24.50
14884;DHT22;7534;50.762;7.000;2023-06-14T10:47:32;33.00;24.80
14884;DHT22;7534;50.762;7.000;2023-06-14T10:52:38;32.00;25.80
14884;DHT22;7534;50.762;7.000;2023-06-14T10:55:15;32.40;25.50
14884;DHT22;7534;50.762;7.000;2023-06-14T10:57:45;33.00;25.50
14884;DHT22;7534;50.762;7.000;2023-06-14T11:00:21;33.10;25.00
14884;DHT22;7534;50.762;7.000;2023-06-14T11:06:17;32.20;25.40
14884;DHT22;7534;50.762;7.000;2023-06-14T11:12:15;30.10;27.00
14884;DHT22;7534;50.762;7.000;2023-06-14T11:14:47;29.80;28.30
14884;DHT22;7534;50.762;7.000;2023-06-14T11:17:13;29.50;27.70
14884;DHT22;7534;50.762;7.000;2023-06-14T11:19:39;28.80;28.70
14884;DHT22;7534;50.762;7.000;2023-06-14T11:22:05;28.70;28.90
14884;DHT22;7534;50.762;7.000;2023-06-14T11:24:32;28.90;28.40
14884;DHT22;7534;50.762;7.000;2023-06-14T11:26:58;29.00;28.90
14884;DHT22;7534;50.762;7.000;2023-06-14T11:29:24;28.50;28.70
14884;DHT22;7534;50.762;7.000;2023-06-14T11:31:50;28.40;30.30
14884;DHT22;7534;50.762;7.000;2023-06-14T11:34:17;28.20;30.00
14884;DHT22;7534;50.762;7.000;2023-06-14T11:36:43;28.20;30.70
14884;DHT22;7534;50.762;7.000;2023-06-14T11:39:09;28.40;30.20
14884;DHT22;7534;50.762;7.000;2023-06-14T11:41:40;29.10;29.80
14884;DHT22;7534;50.762;7.000;2023-06-14T11:44:10;29.40;29.20
14884;DHT22;7534;50.762;7.000;2023-06-14T11:46:37;29.70;29.10
14884;DHT22;7534;50.762;7.000;2023-06-14T11:49:03;29.90;28.90
14884;DHT22;7534;50.762;7.000;2023-06-14T11:51:34;30.40;28.40
14884;DHT22;7534;50.762;7.000;2023-06-14T11:54:02;30.70;28.30
14884;DHT22;7534;50.762;7.000;2023-06-14T11:56:30;30.50;28.00
14884;DHT22;7534;50.762;7.000;2023-06-14T11:58:57;30.50;28.40
14884;DHT22;7534;50.762;7.000;2023-06-14T12:01:23;29.90;28.90
14884;DHT22;7534;50.762;7.000;2023-06-14T12:03:53;29.80;29.10
14884;DHT22;7534;50.762;7.000;2023-06-14T12:06:27;29.20;29.60
14884;DHT22;7534;50.762;7.000;2023-06-14T12:08:56;29.20;30.20
14884;DHT22;7534;50.762;7.000;2023-06-14T12:11:22;29.10;30.60
14884;DHT22;7534;50.762;7.000;2023-06-14T12:13:48;28.90;30.00
14884;DHT22;7534;50.762;7.000;2023-06-14T12:16:15;29.20;29.90
14884;DHT22;7534;50.762;7.000;2023-06-14T12:18:41;29.50;29.30
14884;DHT22;7534;50.762;7.000;2023-06-14T12:21:09;29.70;29.00
14884;DHT22;7534;50.762;7.000;2023-06-14T12:23:46;29.50;28.70
14884;DHT22;7534;50.762;7.000;2023-06-14T12:26:17;29.40;28.40
14884;DHT22;7534;50.762;7.000;2023-06-14T12:28:48;29.40;28.40
14884;DHT22;7534;50.762;7.000;2023-06-14T12:31:14;29.50;28.60
14884;DHT22;7534;50.762;7.000;2023-06-14T12:33:42;29.30;28.60
14884;DHT22;7534;50.762;7.000;2023-06-14T12:36:09;29.40;29.00
14884;DHT22;7534;50.762;7.000;2023-06-14T12:38:36;29.40;28.60
14884;DHT22;7534;50.762;7.000;2023-06-14T12:41:03;29.00;28.50
14884;DHT22;7534;50.762;7.000;2023-06-14T12:43:29;28.60;28.60
14884;DHT22;7534;50.762;7.000;2023-06-14T12:45:55;28.60;28.70
14884;DHT22;7534;50.762;7.000;2023-06-14T12:48:21;28.50;28.70
14884;DHT22;7534;50.762;7.000;2023-06-14T12:50:47;28.60;29.10
14884;DHT22;7534;50.762;7.000;2023-06-14T12:53:13;28.70;28.80
14884;DHT22;7534;50.762;7.000;2023-06-14T12:55:39;28.90;29.50
14884;DHT22;7534;50.762;7.000;2023-06-14T12:58:06;28.40;29.80
14884;DHT22;7534;50.762;7.000;2023-06-14T13:00:32;28.30;29.60
14884;DHT22;7534;50.762;7.000;2023-06-14T13:02:58;28.10;30.00
14884;DHT22;7534;50.762;7.000;2023-06-14T13:05:24;28.40;30.10
14884;DHT22;7534;50.762;7.000;2023-06-14T13:07:50;28.40;30.50
14884;DHT22;7534;50.762;7.000;2023-06-14T13:10:16;28.10;31.10
14884;DHT22;7534;50.762;7.000;2023-06-14T13:12:43;27.90;31.50
14884;DHT22;7534;50.762;7.000;2023-06-14T13:15:09;28.00;32.20
14884;DHT22;7534;50.762;7.000;2023-06-14T13:17:35;28.40;31.70
14884;DHT22;7534;50.762;7.000;2023-06-14T13:20:08;28.90;31.20
14884;DHT22;7534;50.762;7.000;2023-06-14T13:22:34;29.30;30.30
14884;DHT22;7534;50.762;7.000;2023-06-14T13:25:01;29.40;30.30
14884;DHT22;7534;50.762;7.000;2023-06-14T13:27:27;29.00;30.50
14884;DHT22;7534;50.762;7.000;2023-06-14T13:29:54;29.00;30.80
14884;DHT22;7534;50.762;7.000;2023-06-14T13:32:21;28.70;31.20
14884;DHT22;7534;50.762;7.000;2023-06-14T13:34:48;28.80;31.10
14884;DHT22;7534;50.762;7.000;2023-06-14T13:37:14;28.70;30.70
14884;DHT22;7534;50.762;7.000;2023-06-14T13:39:40;28.40;31.60
14884;DHT22;7534;50.762;7.000;2023-06-14T13:42:06;28.10;32.30
14884;DHT22;7534;50.762;7.000;2023-06-14T13:44:32;27.80;32.60
14884;DHT22;7534;50.762;7.000;2023-06-14T13:46:58;28.00;33.00
14884;DHT22;7534;50.762;7.000;2023-06-14T13:49:28;28.30;32.20
14884;DHT22;7534;50.762;7.000;2023-06-14T13:51:54;28.50;31.80
14884;DHT22;7534;50.762;7.000;2023-06-14T13:54:22;28.90;31.30
14884;DHT22;7534;50.762;7.000;2023-06-14T13:56:48;28.60;31.30
14884;DHT22;7534;50.762;7.000;2023-06-14T13:59:14;28.20;31.60
14884;DHT22;7534;50.762;7.000;2023-06-14T14:01:41;27.80;32.30
14884;DHT22;7534;50.762;7.000;2023-06-14T14:04:06;27.50;33.00
14884;DHT22;7534;50.762;7.000;2023-06-14T14:06:32;27.70;33.30
14884;DHT22;7534;50.762;7.000;2023-06-14T14:08:58;27.70;33.60
14884;DHT22;7534;50.762;7.000;2023-06-14T14:11:24;27.90;32.90
14884;DHT22;7534;50.762;7.000;2023-06-14T14:13:49;28.50;32.60
14884;DHT22;7534;50.762;7.000;2023-06-14T14:16:15;28.60;32.10
14884;DHT22;7534;50.762;7.000;2023-06-14T14:18:41;28.60;32.40
14884;DHT22;7534;50.762;7.000;2023-06-14T14:21:07;28.60;32.40
14884;DHT22;7534;50.762;7.000;2023-06-14T14:23:33;28.70;31.20
14884;DHT22;7534;50.762;7.000;2023-06-14T14:25:58;29.20;31.00
14884;DHT22;7534;50.762;7.000;2023-06-14T14:28:26;29.40;30.40
14884;DHT22;7534;50.762;7.000;2023-06-14T14:30:51;29.50;29.90
14884;DHT22;7534;50.762;7.000;2023-06-14T14:33:19;29.80;29.90
14884;DHT22;7534;50.762;7.000;2023-06-14T14:35:45;29.60;30.40
14884;DHT22;7534;50.762;7.000;2023-06-14T14:38:13;29.60;30.30
14884;DHT22;7534;50.762;7.000;2023-06-14T14:40:41;29.50;30.00
14884;DHT22;7534;50.762;7.000;2023-06-14T14:43:07;29.40;30.20
14884;DHT22;7534;50.762;7.000;2023-06-14T14:45:34;29.40;30.60
14884;DHT22;7534;50.762;7.000;2023-06-14T14:48:00;29.40;30.40
14884;DHT22;7534;50.762;7.000;2023-06-14T14:50:27;29.60;30.50
14884;DHT22;7534;50.762;7.000;2023-06-14T14:52:53;30.00;29.90
14884;DHT22;7534;50.762;7.000;2023-06-14T14:55:18;30.10;29.60
14884;DHT22;7534;50.762;7.000;2023-06-14T14:57:45;29.90;29.80
14884;DHT22;7534;50.762;7.000;2023-06-14T15:00:13;29.30;29.90
14884;DHT22;7534;50.762;7.000;2023-06-14T15:02:39;28.60;30.30
14884;DHT22;7534;50.762;7.000;2023-06-14T15:05:05;28.10;31.40
14884;DHT22;7534;50.762;7.000;2023-06-14T15:07:31;27.80;31.10
14884;DHT22;7534;50.762;7.000;2023-06-14T15:09:59;28.00;31.80
14884;DHT22;7534;50.762;7.000;2023-06-14T15:12:27;28.40;31.80
14884;DHT22;7534;50.762;7.000;2023-06-14T15:14:53;28.60;31.80
14884;DHT22;7534;50.762;7.000;2023-06-14T15:17:19;28.30;30.90
14884;DHT22;7534;50.762;7.000;2023-06-14T15:19:47;27.90;31.80
14884;DHT22;7534;50.762;7.000;2023-06-14T15:22:13;28.00;31.70
14884;DHT22;7534;50.762;7.000;2023-06-14T15:24:41;28.30;31.60
14884;DHT22;7534;50.762;7.000;2023-06-14T15:27:07;28.60;31.10
14884;DHT22;7534;50.762;7.000;2023-06-14T15:29:33;29.00;30.90
14884;DHT22;7534;50.762;7.000;2023-06-14T15:32:01;28.60;31.10
14884;DHT22;7534;50.762;7.000;2023-06-14T15:34:26;28.40;31.50
14884;DHT22;7534;50.762;7.000;2023-06-14T15:36:52;28.80;31.20
14884;DHT22;7534;50.762;7.000;2023-06-14T15:39:18;29.10;31.20
14884;DHT22;7534;50.762;7.000;2023-06-14T15:41:43;29.10;31.10
14884;DHT22;7534;50.762;7.000;2023-06-14T15:44:09;29.50;30.60
14884;DHT22;7534;50.762;7.000;2023-06-14T15:46:35;29.70;30.30
14884;DHT22;7534;50.762;7.000;2023-06-14T15:49:00;29.80;30.30
14884;DHT22;7534;50.762;7.000;2023-06-14T15:51:27;29.40;30.00
14884;DHT22;7534;50.762;7.000;2023-06-14T15:53:53;28.90;30.50
14884;DHT22;7534;50.762;7.000;2023-06-14T15:56:19;28.50;31.30
14884;DHT22;7534;50.762;7.000;2023-06-14T15:58:45;28.00;31.50
14884;DHT22;7534;50.762;7.000;2023-06-14T16:01:10;27.50;32.60
14884;DHT22;7534;50.762;7.000;2023-06-14T16:03:36;27.50;33.40
14884;DHT22;7534;50.762;7.000;2023-06-14T16:06:02;27.70;32.30
14884;DHT22;7534;50.762;7.000;2023-06-14T16:08:27;27.90;31.60
14884;DHT22;7534;50.762;7.000;2023-06-14T16:10:53;28.20;31.30
14884;DHT22;7534;50.762;7.000;2023-06-14T16:13:19;28.70;31.20
14884;DHT22;7534;50.762;7.000;2023-06-14T16:15:44;29.10;30.60
14884;DHT22;7534;50.762;7.000;2023-06-14T16:18:10;29.40;29.70